createdAt,value
2022-11-09T00:01:40.418Z,2.13
2022-11-09T00:04:09.555Z,2.03
2022-11-09T00:06:38.509Z,2.00
2022-11-09T00:09:09.818Z,2.07
2022-11-09T00:11:39.875Z,2.23
2022-11-09T00:14:08.512Z,2.30
2022-11-09T00:16:37.233Z,2.10
2022-11-09T00:19:07.832Z,2.00
2022-11-09T00:21:38.386Z,2.07
2022-11-09T00:24:07.963Z,2.17
2022-11-09T00:26:36.585Z,2.17
2022-11-09T00:29:07.005Z,2.60
2022-11-09T00:31:35.961Z,2.43
2022-11-09T00:34:04.964Z,2.30
2022-11-09T00:36:34.794Z,2.30
2022-11-09T00:39:03.267Z,2.00
2022-11-09T00:41:34.545Z,2.50
2022-11-09T00:44:03.354Z,2.20
2022-11-09T00:46:33.863Z,2.00
2022-11-09T00:49:03.178Z,2.43
2022-11-09T00:51:31.757Z,2.10
2022-11-09T00:54:00.524Z,1.80
2022-11-09T00:56:30.471Z,2.50
2022-11-09T00:58:58.989Z,1.87
2022-11-09T01:01:28.076Z,2.00
2022-11-09T01:03:57.992Z,2.40
2022-11-09T01:06:27.960Z,1.90
2022-11-09T01:08:59.465Z,2.10
2022-11-09T01:11:28.159Z,2.07
2022-11-09T01:13:57.179Z,2.10
2022-11-09T01:16:25.842Z,2.20
2022-11-09T01:18:56.591Z,1.90
2022-11-09T01:21:28.538Z,1.67
2022-11-09T01:23:58.578Z,2.00
2022-11-09T01:26:29.424Z,2.20
2022-11-09T01:28:58.161Z,2.07
2022-11-09T01:31:27.010Z,2.47
2022-11-09T01:33:55.393Z,1.77
2022-11-09T01:36:25.233Z,2.10
2022-11-09T01:38:55.241Z,2.17
2022-11-09T01:41:25.928Z,1.90
2022-11-09T01:44:10.099Z,2.20
2022-11-09T01:46:47.708Z,2.67
2022-11-09T01:49:24.276Z,1.30
2022-11-09T01:51:57.330Z,1.73
2022-11-09T01:54:31.739Z,2.00
2022-11-09T01:57:04.686Z,1.60
2022-11-09T01:59:38.217Z,1.70
2022-11-09T02:02:07.308Z,1.73
2022-11-09T02:04:45.019Z,1.90
2022-11-09T02:07:13.957Z,1.93
2022-11-09T02:09:50.728Z,2.17
2022-11-09T02:12:22.014Z,2.03
2022-11-09T02:14:53.899Z,2.10
2022-11-09T02:17:23.225Z,2.17
2022-11-09T02:19:52.285Z,1.60
2022-11-09T02:22:22.988Z,2.10
2022-11-09T02:24:56.156Z,1.83
2022-11-09T02:27:25.800Z,2.17
2022-11-09T02:29:56.096Z,2.70
2022-11-09T02:32:29.436Z,2.30
2022-11-09T02:34:59.413Z,2.13
2022-11-09T02:37:33.148Z,2.00
2022-11-09T02:40:04.284Z,1.57
2022-11-09T02:42:33.317Z,1.80
2022-11-09T02:45:02.173Z,2.03
2022-11-09T02:47:31.780Z,2.17
2022-11-09T02:50:00.634Z,2.37
2022-11-09T02:52:30.686Z,2.17
2022-11-09T02:54:59.553Z,2.50
2022-11-09T02:57:28.269Z,1.90
2022-11-09T02:59:57.540Z,2.30
2022-11-09T03:02:26.074Z,1.80
2022-11-09T03:04:54.625Z,2.10
2022-11-09T03:07:23.316Z,2.20
2022-11-09T03:09:54.027Z,1.97
2022-11-09T03:12:30.600Z,2.10
2022-11-09T03:15:09.219Z,2.13
2022-11-09T03:17:41.652Z,2.33
2022-11-09T03:20:11.930Z,2.20
2022-11-09T03:22:41.435Z,2.20
2022-11-09T03:25:12.028Z,2.53
2022-11-09T03:27:40.554Z,2.07
2022-11-09T03:30:11.257Z,2.03
2022-11-09T03:32:40.984Z,2.07
2022-11-09T03:35:10.722Z,2.93
2022-11-09T03:37:42.165Z,2.03
2022-11-09T03:40:13.693Z,2.23
2022-11-09T03:42:46.350Z,1.97
2022-11-09T03:45:15.618Z,2.17
2022-11-09T03:47:44.435Z,2.00
2022-11-09T03:50:14.612Z,2.20
2022-11-09T03:52:45.644Z,2.47
2022-11-09T03:55:16.295Z,2.53
2022-11-09T03:57:47.796Z,2.13
2022-11-09T04:00:18.990Z,2.63
2022-11-09T04:02:49.354Z,2.27
2022-11-09T04:05:18.459Z,2.07
2022-11-09T04:07:51.232Z,2.07
2022-11-09T04:10:22.327Z,1.60
2022-11-09T04:12:54.447Z,2.03
2022-11-09T04:15:23.285Z,2.37
2022-11-09T04:17:57.142Z,2.40
2022-11-09T04:20:26.608Z,1.90
2022-11-09T04:22:56.494Z,2.03
2022-11-09T04:25:27.234Z,2.77
2022-11-09T04:27:56.930Z,2.00
2022-11-09T04:30:28.159Z,1.97
2022-11-09T04:32:57.243Z,2.23
2022-11-09T04:35:26.788Z,2.40
2022-11-09T04:37:56.508Z,2.20
2022-11-09T04:40:28.560Z,1.97
2022-11-09T04:42:57.164Z,2.27
2022-11-09T04:45:25.801Z,2.10
2022-11-09T04:47:59.302Z,1.97
2022-11-09T04:50:28.805Z,2.03
2022-11-09T04:52:57.529Z,2.13
2022-11-09T04:55:27.691Z,2.60
2022-11-09T04:57:56.173Z,2.03
2022-11-09T05:00:24.568Z,2.53
2022-11-09T05:02:53.158Z,1.80
2022-11-09T05:05:21.526Z,2.03
2022-11-09T05:07:50.093Z,2.03
2022-11-09T05:10:18.632Z,2.30
2022-11-09T05:12:48.461Z,2.30
2022-11-09T05:15:17.122Z,2.17
2022-11-09T05:17:45.878Z,2.37
2022-11-09T05:20:14.567Z,2.13
2022-11-09T05:23:01.180Z,2.40
2022-11-09T05:25:29.567Z,3.10
2022-11-09T05:27:59.354Z,1.97
2022-11-09T05:30:27.977Z,2.20
2022-11-09T05:32:56.753Z,2.60
2022-11-09T05:35:25.368Z,1.93
2022-11-09T05:37:53.758Z,2.07
2022-11-09T05:40:22.761Z,2.10
2022-11-09T05:42:51.486Z,2.00
2022-11-09T05:45:41.349Z,1.83
2022-11-09T05:48:10.249Z,2.00
2022-11-09T05:50:39.444Z,2.23
2022-11-09T05:53:24.186Z,1.97
2022-11-09T05:55:52.991Z,1.80
2022-11-09T05:58:21.667Z,2.60
2022-11-09T06:00:51.660Z,2.63
2022-11-09T06:03:20.522Z,2.33
2022-11-09T06:05:49.474Z,2.13
2022-11-09T06:08:17.994Z,2.23
2022-11-09T06:10:46.389Z,2.03
2022-11-09T06:13:15.032Z,2.20
2022-11-09T06:15:43.519Z,2.10
2022-11-09T06:18:13.458Z,2.47
2022-11-09T06:20:41.950Z,3.00
2022-11-09T06:23:12.132Z,3.03
2022-11-09T06:25:40.954Z,2.53
2022-11-09T06:28:09.498Z,2.40
2022-11-09T06:30:37.932Z,2.27
2022-11-09T06:33:07.084Z,2.30
2022-11-09T06:35:37.183Z,2.80
2022-11-09T06:38:05.710Z,2.43
2022-11-09T06:40:34.402Z,1.90
2022-11-09T06:43:02.816Z,1.77
2022-11-09T06:45:31.899Z,2.30
2022-11-09T06:48:01.916Z,2.30
2022-11-09T06:50:32.679Z,2.33
2022-11-09T06:53:04.728Z,2.93
2022-11-09T06:55:35.249Z,2.90
2022-11-09T06:58:07.978Z,2.10
2022-11-09T07:00:36.492Z,2.63
2022-11-09T07:03:05.355Z,2.27
2022-11-09T07:05:33.748Z,1.60
2022-11-09T07:08:03.997Z,2.03
2022-11-09T07:10:32.498Z,2.43
2022-11-09T07:13:03.262Z,2.13
2022-11-09T07:15:31.804Z,3.37
2022-11-09T07:18:01.214Z,2.00
2022-11-09T07:20:30.626Z,3.03
2022-11-09T07:22:59.396Z,2.33
2022-11-09T07:25:29.211Z,2.37
2022-11-09T07:28:05.054Z,1.80
2022-11-09T07:30:33.970Z,2.47
2022-11-09T07:33:09.188Z,2.30
2022-11-09T07:35:39.090Z,2.23
2022-11-09T07:38:07.823Z,1.97
2022-11-09T07:40:37.903Z,2.30
2022-11-09T07:43:07.744Z,2.30
2022-11-09T07:45:39.144Z,1.83
2022-11-09T07:48:11.084Z,2.10
2022-11-09T07:50:41.451Z,2.30
2022-11-09T07:53:12.109Z,2.27
2022-11-09T07:55:42.236Z,2.20
2022-11-09T07:58:14.021Z,2.03
2022-11-09T08:00:44.311Z,2.40
2022-11-09T08:03:13.347Z,3.00
2022-11-09T08:05:42.265Z,1.87
2022-11-09T08:08:13.495Z,2.27
2022-11-09T08:10:44.435Z,2.80
2022-11-09T08:13:15.729Z,2.07
2022-11-09T08:15:44.695Z,2.00
2022-11-09T08:18:15.363Z,2.00
2022-11-09T08:20:44.219Z,1.83
2022-11-09T08:23:14.312Z,1.90
2022-11-09T08:25:44.859Z,2.30
2022-11-09T08:28:14.937Z,2.43
2022-11-09T08:30:45.268Z,2.13
2022-11-09T08:33:14.603Z,1.50
2022-11-09T08:35:43.367Z,2.80
2022-11-09T08:38:11.993Z,2.00
2022-11-09T08:40:40.911Z,2.53
2022-11-09T08:43:12.770Z,2.20
2022-11-09T08:45:42.514Z,2.90
2022-11-09T08:48:12.749Z,2.17
2022-11-09T08:50:41.297Z,2.13
2022-11-09T08:53:11.842Z,3.03
2022-11-09T08:55:40.652Z,2.27
2022-11-09T08:58:11.050Z,2.07
2022-11-09T09:00:41.344Z,2.30
2022-11-09T09:03:09.958Z,2.87
2022-11-09T09:05:39.075Z,1.90
2022-11-09T09:08:11.264Z,2.23
2022-11-09T09:10:40.666Z,2.37
2022-11-09T09:13:10.663Z,3.40
2022-11-09T09:15:39.458Z,2.63
2022-11-09T09:18:08.018Z,2.70
2022-11-09T09:20:36.517Z,2.20
2022-11-09T09:23:05.080Z,2.10
2022-11-09T09:25:33.829Z,2.40
2022-11-09T09:28:02.431Z,2.10
2022-11-09T09:30:32.516Z,2.33
2022-11-09T09:33:01.525Z,2.77
2022-11-09T09:35:30.525Z,2.30
2022-11-09T09:37:59.407Z,3.40
2022-11-09T09:40:34.888Z,2.37
2022-11-09T09:43:03.680Z,2.33
2022-11-09T09:45:37.100Z,2.40
2022-11-09T09:48:13.989Z,2.70
2022-11-09T09:50:50.055Z,2.43
2022-11-09T09:53:28.310Z,3.13
2022-11-09T09:56:03.160Z,2.10
2022-11-09T09:58:34.269Z,2.37
2022-11-09T10:01:07.614Z,2.30
2022-11-09T10:03:36.257Z,2.43
2022-11-09T10:06:14.357Z,2.20
2022-11-09T10:08:53.154Z,2.70
2022-11-09T10:11:32.903Z,2.63
2022-11-09T10:14:33.698Z,2.60
2022-11-09T10:17:13.670Z,1.90
2022-11-09T10:19:58.986Z,2.40
2022-11-09T10:22:37.777Z,2.20
2022-11-09T10:28:06.358Z,2.27
2022-11-09T10:30:37.512Z,2.57
2022-11-09T10:33:16.888Z,2.37
2022-11-09T10:35:48.900Z,2.63
2022-11-09T10:38:24.787Z,2.40
2022-11-09T10:41:23.680Z,2.50
2022-11-09T10:44:17.505Z,2.60
2022-11-09T10:47:11.448Z,2.43
2022-11-09T10:50:22.718Z,2.23
2022-11-09T10:53:15.669Z,2.30
2022-11-09T10:56:20.271Z,2.30
2022-11-09T10:59:36.286Z,2.00
2022-11-09T11:02:47.195Z,1.97
2022-11-09T11:05:36.315Z,1.73
2022-11-09T11:08:33.267Z,1.80
2022-11-09T11:11:36.323Z,1.70
2022-11-09T11:14:30.853Z,2.00
2022-11-09T11:17:25.723Z,2.10
2022-11-09T11:20:28.985Z,2.30
2022-11-09T11:23:21.386Z,1.97
2022-11-09T11:26:38.933Z,1.70
2022-11-09T11:29:46.407Z,1.93
2022-11-09T11:32:34.131Z,1.90
2022-11-09T11:35:30.429Z,2.20
2022-11-09T11:38:27.816Z,1.80
2022-11-09T11:41:37.605Z,2.30
2022-11-09T11:44:37.826Z,2.20
2022-11-09T11:47:27.685Z,2.27
2022-11-09T11:50:30.443Z,2.30
2022-11-09T11:53:30.431Z,2.10
2022-11-09T11:56:24.202Z,1.73
2022-11-09T11:59:42.747Z,2.10
2022-11-09T12:02:50.313Z,2.40
2022-11-09T12:05:52.989Z,2.90
2022-11-09T12:09:00.707Z,1.70
2022-11-09T12:11:59.445Z,2.07
2022-11-09T12:15:01.947Z,2.10
2022-11-09T12:18:00.367Z,1.97
2022-11-09T12:20:57.599Z,3.17
2022-11-09T12:24:09.239Z,2.30
2022-11-09T12:30:24.156Z,2.13
2022-11-09T12:33:18.241Z,1.97
2022-11-09T12:36:14.135Z,2.10
2022-11-09T12:39:09.617Z,2.53
2022-11-09T12:42:21.084Z,1.97
2022-11-09T12:45:27.597Z,2.07
2022-11-09T12:48:23.918Z,1.90
2022-11-09T12:51:11.207Z,2.30
2022-11-09T12:54:00.145Z,2.70
2022-11-09T12:56:55.595Z,2.33
2022-11-09T12:59:50.484Z,2.40
2022-11-09T13:02:42.237Z,2.70
2022-11-09T13:05:32.630Z,2.50
2022-11-09T13:08:26.441Z,2.33
2022-11-09T13:11:22.458Z,2.00
2022-11-09T13:14:36.975Z,2.43
2022-11-09T13:18:01.475Z,1.97
2022-11-09T13:20:57.803Z,2.63
2022-11-09T13:24:03.623Z,2.83
2022-11-09T13:27:03.821Z,2.13
2022-11-09T13:29:56.447Z,2.03
2022-11-09T13:33:22.871Z,2.37
2022-11-09T13:36:22.383Z,2.00
2022-11-09T13:39:31.302Z,2.37
2022-11-09T13:42:37.393Z,2.73
2022-11-09T13:45:34.079Z,2.60
2022-11-09T13:48:42.604Z,2.37
2022-11-09T13:51:45.312Z,2.23
2022-11-09T13:54:33.796Z,2.80
2022-11-09T13:57:23.307Z,2.43
2022-11-09T14:00:19.879Z,2.63
2022-11-09T14:03:19.863Z,2.17
2022-11-09T14:06:07.977Z,1.93
2022-11-09T14:08:56.084Z,2.27
2022-11-09T14:12:05.003Z,2.37
2022-11-09T14:15:18.154Z,2.53
2022-11-09T14:18:21.257Z,1.87
2022-11-09T14:21:19.541Z,1.87
2022-11-09T14:24:16.985Z,2.27
2022-11-09T14:27:14.310Z,3.07
2022-11-09T14:30:02.849Z,2.73
2022-11-09T14:32:54.271Z,2.03
2022-11-09T14:35:43.298Z,1.80
2022-11-09T14:38:34.049Z,2.77
2022-11-09T14:41:23.382Z,1.47
2022-11-09T14:44:21.890Z,1.63
2022-11-09T14:47:17.741Z,2.00
2022-11-09T14:50:05.866Z,1.83
2022-11-09T14:52:56.886Z,2.50
2022-11-09T14:55:44.787Z,2.33
2022-11-09T14:58:34.063Z,1.93
2022-11-09T15:01:24.963Z,2.37
2022-11-09T15:04:16.991Z,2.67
2022-11-09T15:07:06.347Z,2.10
2022-11-09T15:09:58.061Z,1.83
2022-11-09T15:12:50.220Z,1.97
2022-11-09T15:15:38.887Z,3.07
2022-11-09T15:18:33.594Z,1.77
2022-11-09T15:21:34.466Z,2.20
2022-11-09T15:24:23.747Z,1.47
2022-11-09T15:27:33.685Z,2.53
2022-11-09T15:30:35.552Z,2.57
2022-11-09T15:33:26.196Z,2.10
2022-11-09T15:36:33.253Z,2.30
2022-11-09T15:39:21.936Z,2.47
2022-11-09T15:42:14.778Z,2.07
2022-11-09T15:45:03.808Z,2.00
2022-11-09T15:47:52.852Z,2.23
2022-11-09T15:50:40.566Z,2.60
2022-11-09T15:53:28.326Z,2.13
2022-11-09T15:56:18.269Z,1.97
2022-11-09T15:59:06.263Z,2.30
2022-11-09T16:01:55.372Z,2.20
2022-11-09T16:04:43.003Z,2.53
2022-11-09T16:07:30.262Z,2.40
2022-11-09T16:10:20.434Z,2.90
2022-11-09T16:13:09.667Z,3.10
2022-11-09T16:16:03.320Z,3.00
2022-11-09T16:18:51.963Z,2.33
2022-11-09T16:21:39.390Z,2.57
2022-11-09T16:24:26.771Z,3.23
2022-11-09T16:27:35.348Z,2.87
2022-11-09T16:30:22.246Z,2.70
2022-11-09T16:33:09.987Z,2.23
2022-11-09T16:36:03.788Z,2.60
2022-11-09T16:38:54.122Z,2.93
2022-11-09T16:41:43.344Z,3.00
2022-11-09T16:44:35.687Z,2.77
2022-11-09T16:47:23.134Z,3.43
2022-11-09T16:50:10.829Z,3.87
2022-11-09T16:52:59.335Z,3.10
2022-11-09T16:55:46.995Z,3.53
2022-11-09T16:58:34.299Z,2.57
2022-11-09T17:01:23.786Z,2.20
2022-11-09T17:04:11.348Z,2.27
2022-11-09T17:06:58.904Z,2.30
2022-11-09T17:09:47.913Z,2.77
2022-11-09T17:12:35.559Z,2.60
2022-11-09T17:15:22.564Z,2.20
2022-11-09T17:18:10.261Z,2.57
2022-11-09T17:20:57.937Z,3.03
2022-11-09T17:23:45.543Z,2.73
2022-11-09T17:26:34.386Z,2.80
2022-11-09T17:29:24.757Z,2.60
2022-11-09T17:32:12.277Z,2.63
2022-11-09T17:35:00.012Z,2.97
2022-11-09T17:37:48.388Z,2.67
2022-11-09T17:40:36.116Z,2.90
2022-11-09T17:43:25.401Z,2.43
2022-11-09T17:46:14.463Z,2.10
2022-11-09T17:49:05.671Z,2.83
2022-11-09T17:51:54.489Z,2.43
2022-11-09T17:54:41.441Z,2.93
2022-11-09T17:57:28.883Z,2.87
2022-11-09T18:00:18.941Z,2.40
2022-11-09T18:03:06.474Z,3.40
2022-11-09T18:05:53.490Z,2.70
2022-11-09T18:08:43.850Z,2.90
2022-11-09T18:11:31.263Z,2.30
2022-11-09T18:14:18.455Z,3.00
2022-11-09T18:17:07.414Z,3.33
2022-11-09T18:19:54.984Z,2.47
2022-11-09T18:22:42.299Z,1.97
2022-11-09T18:25:29.151Z,2.83
2022-11-09T18:28:16.160Z,3.10
2022-11-09T18:31:03.762Z,3.20
2022-11-09T18:33:53.482Z,2.93
2022-11-09T18:36:41.241Z,3.40
2022-11-09T18:39:28.531Z,3.00
2022-11-09T18:42:15.387Z,2.77
2022-11-09T18:45:03.019Z,2.90
2022-11-09T18:47:50.724Z,2.67
2022-11-09T18:50:40.427Z,3.97
2022-11-09T18:53:30.876Z,3.90
2022-11-09T18:56:22.833Z,4.23
2022-11-09T18:59:12.439Z,3.17
2022-11-09T19:02:00.191Z,2.77
2022-11-09T19:04:47.395Z,4.40
2022-11-09T19:07:35.821Z,3.97
2022-11-09T19:10:22.549Z,3.17
2022-11-09T19:13:10.287Z,3.27
2022-11-09T19:15:58.484Z,2.63
2022-11-09T19:18:45.968Z,3.10
2022-11-09T19:21:38.350Z,2.77
2022-11-09T19:24:28.663Z,3.60
2022-11-09T19:27:16.028Z,3.00
2022-11-09T19:30:08.982Z,3.73
2022-11-09T19:32:56.953Z,3.00
2022-11-09T19:35:52.768Z,3.50
2022-11-09T19:38:50.251Z,3.53
2022-11-09T19:41:39.766Z,3.10
2022-11-09T19:44:27.409Z,2.57
2022-11-09T19:47:14.472Z,2.90
2022-11-09T19:50:01.705Z,3.40
2022-11-09T19:52:49.255Z,3.17
2022-11-09T19:55:36.668Z,2.97
2022-11-09T19:58:25.459Z,3.30
2022-11-09T20:01:13.339Z,2.83
2022-11-09T20:04:05.257Z,3.27
2022-11-09T20:06:55.229Z,3.53
2022-11-09T20:09:42.760Z,3.37
2022-11-09T20:12:47.981Z,3.53
2022-11-09T20:15:36.627Z,3.80
2022-11-09T20:18:25.458Z,3.03
2022-11-09T20:21:13.129Z,3.07
2022-11-09T20:24:00.446Z,3.50
2022-11-09T20:26:47.732Z,3.30
2022-11-09T20:29:34.946Z,3.67
2022-11-09T20:32:23.874Z,3.53
2022-11-09T20:35:11.108Z,3.57
2022-11-09T20:37:58.492Z,3.07
2022-11-09T20:40:45.484Z,3.07
2022-11-09T20:43:33.568Z,3.63
2022-11-09T20:46:24.256Z,3.23
2022-11-09T20:49:12.837Z,3.63
2022-11-09T20:52:00.328Z,3.73
2022-11-09T20:54:47.552Z,3.50
2022-11-09T20:57:34.976Z,3.63
2022-11-09T21:00:24.554Z,3.47
2022-11-09T21:03:12.159Z,2.80
2022-11-09T21:06:02.017Z,3.07
2022-11-09T21:08:51.890Z,3.30
2022-11-09T21:12:00.729Z,3.80
2022-11-09T21:14:47.630Z,3.40
2022-11-09T21:17:35.080Z,3.40
2022-11-09T21:20:22.185Z,3.50
2022-11-09T21:23:29.426Z,3.50
2022-11-09T21:26:42.548Z,4.03
2022-11-09T21:29:46.793Z,3.27
2022-11-09T21:32:33.875Z,3.30
2022-11-09T21:35:20.949Z,2.80
2022-11-09T21:38:08.190Z,3.10
2022-11-09T21:41:21.608Z,3.37
2022-11-09T21:44:10.384Z,2.60
2022-11-09T21:46:59.240Z,3.27
2022-11-09T21:49:46.607Z,3.80
2022-11-09T21:52:33.772Z,3.17
2022-11-09T21:55:21.251Z,3.73
2022-11-09T21:58:09.989Z,3.30
2022-11-09T22:01:02.116Z,3.30
2022-11-09T22:03:50.112Z,3.57
2022-11-09T22:06:39.166Z,3.60
2022-11-09T22:09:32.394Z,4.30
2022-11-09T22:12:40.318Z,3.60
2022-11-09T22:15:46.794Z,3.00
2022-11-09T22:18:52.311Z,3.40
2022-11-09T22:21:39.460Z,3.07
2022-11-09T22:24:26.361Z,3.50
2022-11-09T22:27:14.519Z,3.40
2022-11-09T22:30:01.894Z,3.30
2022-11-09T22:32:50.796Z,3.63
2022-11-09T22:35:37.908Z,3.57
2022-11-09T22:38:27.109Z,3.10
2022-11-09T22:41:16.058Z,3.83
2022-11-09T22:44:03.372Z,3.83
2022-11-09T22:46:50.800Z,3.50
2022-11-09T22:49:39.385Z,3.40
2022-11-09T22:52:26.481Z,3.90
2022-11-09T22:55:14.188Z,3.73
2022-11-09T22:58:01.732Z,3.10
2022-11-09T23:00:48.894Z,4.63
2022-11-09T23:03:36.860Z,3.27
2022-11-09T23:06:25.681Z,4.00
2022-11-09T23:09:13.069Z,4.10
2022-11-09T23:12:00.080Z,3.70
2022-11-09T23:15:05.527Z,4.00
2022-11-09T23:18:12.077Z,3.53
2022-11-09T23:21:01.736Z,3.67
2022-11-09T23:23:50.913Z,2.73
2022-11-09T23:26:37.566Z,3.93
2022-11-09T23:29:24.469Z,3.67
2022-11-09T23:32:11.050Z,3.50
2022-11-09T23:34:58.171Z,3.63
2022-11-09T23:37:45.839Z,5.10
2022-11-09T23:40:36.958Z,3.17
2022-11-09T23:43:24.089Z,3.53
2022-11-09T23:46:15.083Z,3.93
2022-11-09T23:49:02.672Z,3.43
2022-11-09T23:51:49.880Z,3.40
2022-11-09T23:54:37.234Z,3.27
2022-11-09T23:57:25.874Z,3.97
